createdAt,value
2019-05-09T00:01:15.879Z,6.83
2019-05-09T00:03:45.642Z,6.60
2019-05-09T00:06:15.565Z,6.33
2019-05-09T00:08:45.338Z,7.10
2019-05-09T00:11:15.277Z,7.17
2019-05-09T00:13:45.097Z,7.27
2019-05-09T00:16:14.972Z,6.67
2019-05-09T00:18:44.854Z,6.60
2019-05-09T00:21:23.935Z,6.37
2019-05-09T00:23:54.235Z,6.70
2019-05-09T00:26:24.122Z,7.13
2019-05-09T00:28:57.891Z,7.00
2019-05-09T00:31:35.902Z,6.67
2019-05-09T00:34:08.250Z,7.47
2019-05-09T00:36:38.185Z,6.80
2019-05-09T00:39:08.038Z,6.23
2019-05-09T00:41:37.801Z,6.63
2019-05-09T00:44:17.102Z,6.93
2019-05-09T00:46:56.186Z,7.10
2019-05-09T00:49:26.889Z,6.80
2019-05-09T00:51:56.822Z,8.10
2019-05-09T00:54:26.685Z,7.17
2019-05-09T00:56:56.523Z,7.67
2019-05-09T00:59:26.473Z,7.63
2019-05-09T01:01:56.378Z,7.27
2019-05-09T01:04:26.215Z,7.43
2019-05-09T01:06:56.000Z,7.50
2019-05-09T01:09:25.883Z,7.40
2019-05-09T01:11:55.754Z,7.00
2019-05-09T01:14:25.571Z,7.17
2019-05-09T01:16:55.361Z,7.80
2019-05-09T01:19:25.137Z,7.10
2019-05-09T01:21:54.998Z,7.00
2019-05-09T01:24:24.747Z,7.13
2019-05-09T01:26:54.662Z,7.13
2019-05-09T01:29:24.548Z,6.83
2019-05-09T01:31:56.751Z,5.90
2019-05-09T01:34:29.674Z,6.30
2019-05-09T01:37:10.376Z,6.70
2019-05-09T01:39:40.163Z,6.67
2019-05-09T01:42:10.061Z,6.67
2019-05-09T01:44:39.954Z,6.90
2019-05-09T01:47:09.756Z,6.10
2019-05-09T01:49:39.707Z,5.47
2019-05-09T01:52:09.496Z,5.07
2019-05-09T01:54:40.873Z,5.70
2019-05-09T01:57:10.741Z,5.40
2019-05-09T01:59:40.611Z,5.07
2019-05-09T02:02:10.407Z,4.73
2019-05-09T02:04:40.252Z,5.17
2019-05-09T02:07:10.375Z,5.37
2019-05-09T02:09:40.265Z,5.57
2019-05-09T02:12:10.069Z,5.40
2019-05-09T02:14:58.862Z,5.90
2019-05-09T02:18:01.086Z,5.87
2019-05-09T02:20:24.041Z,5.57
2019-05-09T02:22:54.246Z,5.73
2019-05-09T02:25:24.336Z,5.40
2019-05-09T02:27:55.250Z,6.23
2019-05-09T02:30:25.625Z,6.07
2019-05-09T02:32:55.591Z,6.60
2019-05-09T02:35:28.503Z,8.03
2019-05-09T02:37:58.731Z,8.83
2019-05-09T02:40:28.637Z,11.10
2019-05-09T02:42:59.130Z,9.60
2019-05-09T02:45:32.979Z,10.27
2019-05-09T02:48:02.827Z,9.87
2019-05-09T02:50:32.738Z,10.00
2019-05-09T02:53:02.565Z,10.00
2019-05-09T02:55:32.331Z,10.80
2019-05-09T02:58:02.748Z,11.07
2019-05-09T03:00:50.100Z,10.40
2019-05-09T03:03:23.654Z,10.20
2019-05-09T03:05:53.443Z,9.70
2019-05-09T03:08:23.441Z,10.80
2019-05-09T03:10:53.384Z,10.13
2019-05-09T03:13:23.273Z,10.50
2019-05-09T03:15:58.409Z,12.10
2019-05-09T03:18:28.665Z,12.13
2019-05-09T03:21:10.707Z,11.23
2019-05-09T03:23:40.564Z,11.27
2019-05-09T03:26:11.971Z,11.10
2019-05-09T03:28:49.259Z,11.43
2019-05-09T03:31:20.773Z,10.77
2019-05-09T03:33:50.695Z,10.93
2019-05-09T03:36:20.479Z,11.43
2019-05-09T03:38:50.346Z,11.20
2019-05-09T03:41:20.198Z,11.40
2019-05-09T03:43:50.046Z,10.70
2019-05-09T03:46:38.766Z,11.23
2019-05-09T03:49:09.354Z,12.37
2019-05-09T03:51:39.271Z,12.20
2019-05-09T03:54:09.059Z,12.33
2019-05-09T03:56:42.946Z,12.77
2019-05-09T03:59:12.769Z,11.80
2019-05-09T04:01:42.675Z,12.67
2019-05-09T04:04:12.502Z,12.67
2019-05-09T04:06:42.363Z,13.53
2019-05-09T04:09:12.280Z,11.53
2019-05-09T04:11:42.130Z,10.37
2019-05-09T04:14:17.530Z,10.80
2019-05-09T04:16:48.253Z,11.87
2019-05-09T04:19:18.346Z,11.57
2019-05-09T04:21:48.453Z,10.23
2019-05-09T04:24:18.390Z,11.40
2019-05-09T04:27:03.223Z,11.20
2019-05-09T04:29:33.069Z,10.97
2019-05-09T04:32:02.986Z,10.63
2019-05-09T04:34:32.785Z,9.53
2019-05-09T04:37:02.573Z,6.50
2019-05-09T04:39:32.391Z,5.13
2019-05-09T04:42:05.502Z,4.80
2019-05-09T04:44:57.409Z,6.30
2019-05-09T04:47:22.955Z,8.00
2019-05-09T04:49:52.754Z,9.57
2019-05-09T04:52:22.634Z,9.03
2019-05-09T04:54:52.458Z,9.33
2019-05-09T04:57:22.319Z,7.80
2019-05-09T04:59:52.195Z,6.87
2019-05-09T05:02:34.305Z,6.53
2019-05-09T05:05:04.276Z,6.13
2019-05-09T05:07:34.150Z,5.80
2019-05-09T05:10:04.252Z,5.87
2019-05-09T05:12:34.182Z,6.20
2019-05-09T05:15:04.359Z,6.80
2019-05-09T05:17:34.190Z,6.67
2019-05-09T05:20:08.219Z,5.43
2019-05-09T05:22:47.688Z,5.00
2019-05-09T05:25:17.833Z,5.37
2019-05-09T05:27:47.865Z,6.23
2019-05-09T05:30:18.067Z,5.63
2019-05-09T05:32:54.126Z,6.37
2019-05-09T05:35:39.506Z,5.67
2019-05-09T05:38:09.339Z,6.03
2019-05-09T05:40:44.788Z,6.17
2019-05-09T05:43:10.867Z,6.00
2019-05-09T05:45:48.029Z,6.00
2019-05-09T05:48:22.155Z,6.40
2019-05-09T05:50:51.965Z,5.20
2019-05-09T05:53:21.791Z,5.53
2019-05-09T05:55:52.769Z,6.47
2019-05-09T05:58:22.796Z,6.70
2019-05-09T06:00:52.715Z,6.77
2019-05-09T06:03:22.472Z,6.33
2019-05-09T06:05:52.282Z,5.63
2019-05-09T06:08:22.281Z,5.27
2019-05-09T06:10:52.137Z,5.10
2019-05-09T06:13:22.039Z,5.40
2019-05-09T06:15:51.879Z,5.60
2019-05-09T06:18:21.783Z,5.40
2019-05-09T06:20:51.568Z,5.37
2019-05-09T06:23:21.392Z,4.37
2019-05-09T06:25:51.302Z,5.07
2019-05-09T06:28:21.214Z,4.80
2019-05-09T06:30:51.006Z,5.67
2019-05-09T06:33:20.912Z,5.47
2019-05-09T06:35:50.783Z,5.20
2019-05-09T06:38:20.779Z,4.63
2019-05-09T06:40:50.590Z,4.73
2019-05-09T06:43:22.300Z,4.50
2019-05-09T06:46:09.755Z,4.90
2019-05-09T06:48:39.641Z,5.93
2019-05-09T06:51:09.424Z,5.33
2019-05-09T06:53:39.253Z,4.93
2019-05-09T06:56:09.098Z,4.53
2019-05-09T06:58:38.955Z,4.57
2019-05-09T07:01:20.423Z,4.20
2019-05-09T07:03:52.610Z,4.30
2019-05-09T07:06:28.408Z,5.03
2019-05-09T07:09:17.537Z,5.63
2019-05-09T07:11:48.605Z,5.37
2019-05-09T07:14:31.914Z,4.63
2019-05-09T07:17:00.145Z,4.10
2019-05-09T07:19:30.104Z,4.03
2019-05-09T07:22:30.884Z,4.20
2019-05-09T07:25:10.789Z,4.40
2019-05-09T07:27:39.071Z,5.07
2019-05-09T07:30:17.951Z,4.40
2019-05-09T07:32:55.023Z,5.10
2019-05-09T07:35:24.953Z,4.20
2019-05-09T07:37:54.878Z,4.47
2019-05-09T07:40:27.935Z,4.77
2019-05-09T07:42:58.270Z,6.10
2019-05-09T07:45:28.179Z,6.40
2019-05-09T07:47:58.513Z,4.97
2019-05-09T07:50:28.478Z,5.77
2019-05-09T07:52:58.399Z,5.23
2019-05-09T07:55:28.294Z,4.80
2019-05-09T07:57:59.056Z,4.83
2019-05-09T08:00:33.841Z,4.70
2019-05-09T08:03:03.773Z,5.00
2019-05-09T08:05:33.825Z,4.27
2019-05-09T08:08:08.027Z,4.17
2019-05-09T08:10:38.573Z,4.60
2019-05-09T08:13:11.856Z,4.70
2019-05-09T08:15:40.028Z,4.20
2019-05-09T08:18:09.855Z,4.53
2019-05-09T08:20:40.778Z,4.03
2019-05-09T08:23:10.678Z,4.17
2019-05-09T08:25:40.572Z,4.50
2019-05-09T08:28:10.391Z,4.40
2019-05-09T08:30:40.642Z,4.50
2019-05-09T08:33:10.701Z,4.27
2019-05-09T08:35:40.595Z,3.10
2019-05-09T08:38:10.489Z,3.40
2019-05-09T08:40:40.401Z,3.50
2019-05-09T08:43:10.222Z,4.30
2019-05-09T08:45:40.035Z,3.67
2019-05-09T08:48:09.874Z,3.30
2019-05-09T08:50:49.322Z,3.13
2019-05-09T08:53:19.144Z,3.10
2019-05-09T08:55:48.964Z,3.30
2019-05-09T08:58:19.890Z,2.93
2019-05-09T09:00:49.965Z,3.97
2019-05-09T09:03:19.771Z,4.33
2019-05-09T09:05:49.631Z,3.87
2019-05-09T09:08:19.509Z,4.20
2019-05-09T09:10:49.305Z,3.43
2019-05-09T09:13:19.305Z,3.97
2019-05-09T09:16:08.665Z,3.10
2019-05-09T09:18:20.678Z,2.73
2019-05-09T09:20:50.412Z,2.50
2019-05-09T09:23:20.206Z,3.03
2019-05-09T09:25:49.986Z,2.63
2019-05-09T09:28:19.840Z,2.30
2019-05-09T09:30:49.648Z,3.47
2019-05-09T09:33:19.615Z,2.63
2019-05-09T09:35:49.427Z,3.17
2019-05-09T09:38:19.549Z,3.73
2019-05-09T09:40:49.433Z,2.90
2019-05-09T09:43:19.298Z,2.80
2019-05-09T09:46:05.102Z,2.77
2019-05-09T09:48:20.619Z,3.00
2019-05-09T09:50:51.747Z,3.30
2019-05-09T09:53:21.793Z,3.43
2019-05-09T09:55:51.664Z,3.30
2019-05-09T09:58:21.447Z,3.30
2019-05-09T10:01:10.295Z,3.70
2019-05-09T10:03:40.191Z,2.70
2019-05-09T10:06:10.022Z,3.97
2019-05-09T10:08:40.516Z,3.20
2019-05-09T10:11:10.737Z,2.63
2019-05-09T10:13:40.590Z,3.57
2019-05-09T10:16:32.810Z,2.07
2019-05-09T10:19:13.437Z,2.63
2019-05-09T10:21:48.436Z,2.13
2019-05-09T10:24:17.793Z,1.93
2019-05-09T10:27:21.341Z,1.77
2019-05-09T10:29:51.155Z,2.13
2019-05-09T10:32:21.111Z,1.73
2019-05-09T10:34:50.973Z,2.60
2019-05-09T10:37:20.873Z,2.20
2019-05-09T10:39:50.694Z,2.07
2019-05-09T10:42:42.230Z,3.13
2019-05-09T10:45:25.882Z,1.70
2019-05-09T10:47:57.576Z,2.03
2019-05-09T10:50:33.829Z,1.50
2019-05-09T10:52:58.723Z,2.00
2019-05-09T10:55:28.722Z,1.90
2019-05-09T10:58:02.262Z,1.90
2019-05-09T11:00:29.987Z,1.63
2019-05-09T11:03:00.339Z,1.67
2019-05-09T11:05:30.158Z,1.30
2019-05-09T11:08:00.043Z,1.70
2019-05-09T11:10:32.698Z,1.60
2019-05-09T11:13:01.500Z,1.80
2019-05-09T11:15:31.486Z,1.90
2019-05-09T11:18:01.298Z,1.97
2019-05-09T11:20:31.092Z,1.70
2019-05-09T11:23:00.922Z,1.40
2019-05-09T11:25:30.809Z,2.27
2019-05-09T11:28:11.194Z,1.90
2019-05-09T11:30:32.102Z,2.30
2019-05-09T11:33:02.016Z,6.70
2019-05-09T11:35:31.931Z,3.47
2019-05-09T11:38:01.745Z,2.10
2019-05-09T11:40:31.670Z,3.07
2019-05-09T11:43:01.610Z,1.80
2019-05-09T11:45:31.629Z,2.10
2019-05-09T11:48:01.448Z,2.90
2019-05-09T11:50:31.333Z,2.13
2019-05-09T11:53:01.219Z,2.17
2019-05-09T11:55:35.897Z,2.10
2019-05-09T11:58:02.958Z,1.80
2019-05-09T12:00:32.815Z,2.60
2019-05-09T12:03:02.728Z,2.50
2019-05-09T12:05:32.659Z,2.40
2019-05-09T12:08:02.470Z,1.60
2019-05-09T12:10:32.262Z,3.17
2019-05-09T12:13:02.233Z,3.13
2019-05-09T12:15:32.052Z,2.73
2019-05-09T12:18:07.568Z,1.27
2019-05-09T12:20:34.163Z,1.70
2019-05-09T12:23:04.022Z,1.53
2019-05-09T12:25:33.847Z,1.43
2019-05-09T12:28:03.682Z,2.17
2019-05-09T12:30:33.505Z,1.40
2019-05-09T12:33:03.303Z,1.83
2019-05-09T12:35:33.251Z,1.57
2019-05-09T12:38:03.128Z,1.63
2019-05-09T12:40:32.945Z,1.50
2019-05-09T12:43:02.821Z,1.83
2019-05-09T12:45:32.673Z,1.60
2019-05-09T12:48:10.477Z,1.27
2019-05-09T12:50:34.041Z,1.40
2019-05-09T12:53:03.933Z,1.50
2019-05-09T12:55:34.647Z,4.17
2019-05-09T12:58:04.535Z,1.30
2019-05-09T13:00:34.455Z,2.00
2019-05-09T13:03:04.252Z,1.30
2019-05-09T13:05:34.102Z,1.50
2019-05-09T13:08:03.976Z,1.40
2019-05-09T13:10:33.896Z,1.97
2019-05-09T13:13:03.751Z,1.30
2019-05-09T13:15:41.466Z,2.77
2019-05-09T13:18:21.881Z,1.53
2019-05-09T13:20:42.911Z,1.00
2019-05-09T13:23:12.675Z,1.33
2019-05-09T13:25:42.604Z,2.03
2019-05-09T13:28:12.657Z,1.30
2019-05-09T13:30:42.406Z,1.50
2019-05-09T13:33:12.267Z,1.00
2019-05-09T13:35:42.090Z,1.00
2019-05-09T13:38:11.923Z,1.00
2019-05-09T13:40:41.790Z,2.27
2019-05-09T13:43:11.610Z,1.33
2019-05-09T13:45:41.524Z,1.40
2019-05-09T13:48:26.469Z,0.90
2019-05-09T13:50:43.011Z,1.20
2019-05-09T13:53:12.821Z,1.43
2019-05-09T13:55:43.101Z,1.30
2019-05-09T13:58:12.981Z,2.37
2019-05-09T14:00:55.930Z,1.77
2019-05-09T14:03:14.533Z,1.00
2019-05-09T14:05:44.370Z,1.70
2019-05-09T14:08:14.266Z,1.20
2019-05-09T14:10:44.037Z,1.27
2019-05-09T14:13:14.193Z,2.50
2019-05-09T14:15:44.337Z,1.20
2019-05-09T14:18:14.272Z,1.50
2019-05-09T14:20:44.131Z,2.63
2019-05-09T14:23:14.038Z,1.63
2019-05-09T14:25:48.559Z,1.20
2019-05-09T14:28:15.335Z,1.47
2019-05-09T14:30:45.116Z,1.90
2019-05-09T14:33:14.902Z,1.30
2019-05-09T14:35:44.875Z,1.00
2019-05-09T14:38:14.697Z,1.00
2019-05-09T14:40:44.624Z,1.27
2019-05-09T14:43:14.408Z,1.97
2019-05-09T14:45:44.333Z,1.20
2019-05-09T14:48:14.217Z,1.57
2019-05-09T14:50:44.113Z,2.07
2019-05-09T14:53:14.048Z,3.00
2019-05-09T14:55:43.790Z,1.70
2019-05-09T14:58:17.797Z,1.60
2019-05-09T15:00:48.014Z,1.50
2019-05-09T15:03:18.947Z,1.87
2019-05-09T15:05:48.886Z,1.40
2019-05-09T15:08:18.694Z,3.37
2019-05-09T15:10:48.656Z,1.67
2019-05-09T15:13:18.499Z,1.60
2019-05-09T15:15:48.329Z,1.60
2019-05-09T15:18:18.171Z,1.93
2019-05-09T15:20:48.067Z,1.50
2019-05-09T15:23:19.621Z,1.37
2019-05-09T15:25:49.704Z,1.83
2019-05-09T15:28:19.509Z,1.33
2019-05-09T15:30:49.483Z,1.50
2019-05-09T15:33:19.314Z,1.20
2019-05-09T15:35:49.173Z,1.53
2019-05-09T15:38:22.317Z,1.50
2019-05-09T15:40:50.464Z,2.53
2019-05-09T15:43:20.329Z,1.60
2019-05-09T15:46:11.878Z,1.63
2019-05-09T15:48:41.721Z,1.30
2019-05-09T15:51:11.647Z,1.50
2019-05-09T15:53:41.476Z,1.70
2019-05-09T15:56:11.358Z,1.90
2019-05-09T15:58:41.188Z,2.10
2019-05-09T16:01:11.078Z,2.10
2019-05-09T16:03:40.939Z,2.00
2019-05-09T16:06:10.755Z,2.00
2019-05-09T16:08:40.540Z,2.13
2019-05-09T16:11:10.392Z,1.97
2019-05-09T16:13:40.284Z,2.43
2019-05-09T16:16:10.135Z,1.83
2019-05-09T16:18:42.683Z,2.17
2019-05-09T16:21:11.436Z,2.57
2019-05-09T16:23:41.318Z,1.80
2019-05-09T16:26:11.213Z,3.33
2019-05-09T16:28:41.105Z,2.07
2019-05-09T16:31:11.881Z,1.80
2019-05-09T16:33:41.864Z,2.20
2019-05-09T16:36:11.751Z,2.33
2019-05-09T16:38:45.923Z,1.80
2019-05-09T16:41:13.263Z,1.73
2019-05-09T16:43:43.092Z,1.90
2019-05-09T16:46:12.918Z,2.27
2019-05-09T16:48:42.925Z,2.17
2019-05-09T16:51:12.739Z,5.03
2019-05-09T16:53:42.565Z,2.27
2019-05-09T16:56:12.453Z,3.43
2019-05-09T16:58:42.245Z,2.27
2019-05-09T17:01:12.176Z,2.87
2019-05-09T17:03:42.116Z,2.27
2019-05-09T17:06:11.867Z,2.30
2019-05-09T17:08:41.702Z,3.47
2019-05-09T17:11:11.626Z,2.10
2019-05-09T17:13:41.477Z,2.17
2019-05-09T17:16:11.284Z,2.00
2019-05-09T17:18:41.031Z,2.90
2019-05-09T17:21:29.792Z,2.30
2019-05-09T17:23:59.731Z,2.97
2019-05-09T17:26:29.462Z,3.83
2019-05-09T17:28:59.345Z,3.40
2019-05-09T17:31:29.288Z,3.20
2019-05-09T17:33:59.122Z,2.97
2019-05-09T17:36:28.944Z,2.30
2019-05-09T17:38:58.685Z,2.83
2019-05-09T17:41:28.533Z,4.47
2019-05-09T17:43:58.385Z,3.23
2019-05-09T17:46:28.302Z,3.33
2019-05-09T17:48:58.429Z,4.27
2019-05-09T17:51:34.073Z,2.63
2019-05-09T17:54:00.065Z,2.67
2019-05-09T17:56:29.936Z,4.07
2019-05-09T17:58:59.758Z,3.03
2019-05-09T18:01:29.600Z,3.43
2019-05-09T18:03:59.570Z,3.57
2019-05-09T18:06:29.438Z,3.80
2019-05-09T18:08:59.341Z,3.67
2019-05-09T18:11:29.259Z,3.87
2019-05-09T18:13:59.114Z,3.23
2019-05-09T18:16:28.919Z,3.83
2019-05-09T18:19:00.374Z,6.33
2019-05-09T18:21:30.273Z,4.00
2019-05-09T18:24:00.080Z,3.60
2019-05-09T18:26:29.863Z,4.20
2019-05-09T18:29:01.890Z,3.53
2019-05-09T18:31:50.102Z,3.47
2019-05-09T18:34:19.946Z,3.50
2019-05-09T18:36:49.739Z,4.00
2019-05-09T18:39:20.404Z,4.93
2019-05-09T18:41:50.289Z,6.13
2019-05-09T18:44:20.104Z,5.13
2019-05-09T18:46:49.974Z,5.67
2019-05-09T18:49:19.839Z,5.43
2019-05-09T18:52:02.645Z,4.90
2019-05-09T18:54:21.331Z,5.30
2019-05-09T18:56:51.282Z,5.07
2019-05-09T18:59:21.214Z,4.93
2019-05-09T19:01:51.052Z,6.20
2019-05-09T19:04:20.968Z,6.07
2019-05-09T19:06:50.821Z,4.60
2019-05-09T19:09:20.734Z,4.17
2019-05-09T19:11:50.635Z,4.60
2019-05-09T19:14:22.560Z,6.03
2019-05-09T19:17:23.425Z,6.03
2019-05-09T19:20:11.465Z,4.87
2019-05-09T19:22:41.322Z,4.43
2019-05-09T19:25:11.279Z,4.50
2019-05-09T19:27:41.197Z,4.43
2019-05-09T19:30:11.267Z,4.50
2019-05-09T19:32:41.167Z,4.83
2019-05-09T19:35:11.193Z,4.90
2019-05-09T19:37:41.038Z,7.77
2019-05-09T19:40:11.193Z,5.30
2019-05-09T19:42:41.103Z,4.37
2019-05-09T19:45:11.210Z,5.20
2019-05-09T19:47:41.185Z,5.93
2019-05-09T19:50:11.331Z,6.20
2019-05-09T19:52:41.116Z,5.50
2019-05-09T19:55:12.496Z,6.10
2019-05-09T19:57:42.383Z,6.50
2019-05-09T20:00:13.776Z,5.80
2019-05-09T20:02:43.645Z,5.10
2019-05-09T20:05:14.024Z,5.60
2019-05-09T20:07:43.899Z,8.70
2019-05-09T20:10:32.114Z,7.50
2019-05-09T20:13:29.643Z,6.37
2019-05-09T20:15:59.605Z,5.60
2019-05-09T20:18:29.427Z,5.77
2019-05-09T20:20:59.306Z,6.87
2019-05-09T20:23:29.161Z,6.40
2019-05-09T20:25:59.081Z,7.10
2019-05-09T20:28:28.903Z,7.17
2019-05-09T20:30:58.767Z,6.10
2019-05-09T20:33:28.694Z,6.93
2019-05-09T20:35:58.414Z,6.60
2019-05-09T20:38:28.498Z,6.97
2019-05-09T20:40:58.539Z,6.97
2019-05-09T20:43:28.559Z,7.77
2019-05-09T20:45:58.595Z,6.67
2019-05-09T20:48:28.565Z,8.03
2019-05-09T20:50:58.743Z,6.83
2019-05-09T20:53:28.701Z,8.43
2019-05-09T20:55:58.771Z,7.10
2019-05-09T20:58:28.817Z,7.30
2019-05-09T21:00:58.841Z,6.17
2019-05-09T21:03:28.891Z,7.00
2019-05-09T21:05:58.943Z,7.20
2019-05-09T21:08:28.931Z,6.67
2019-05-09T21:10:58.896Z,6.90
2019-05-09T21:13:28.943Z,6.40
2019-05-09T21:15:58.950Z,6.23
2019-05-09T21:18:29.007Z,5.77
2019-05-09T21:20:59.127Z,6.83
2019-05-09T21:23:29.241Z,5.90
2019-05-09T21:25:59.165Z,5.77
2019-05-09T21:28:29.188Z,5.93
2019-05-09T21:30:59.237Z,5.40
2019-05-09T21:33:29.203Z,5.43
2019-05-09T21:35:58.981Z,5.37
2019-05-09T21:38:28.835Z,5.80
2019-05-09T21:40:58.752Z,7.07
2019-05-09T21:43:28.647Z,7.17
2019-05-09T21:45:58.563Z,7.97
2019-05-09T21:48:28.387Z,8.70
2019-05-09T21:50:58.201Z,9.30
2019-05-09T21:53:40.309Z,9.23
2019-05-09T21:55:59.556Z,10.47
2019-05-09T21:58:29.424Z,10.60
2019-05-09T22:01:00.527Z,9.13
2019-05-09T22:03:30.609Z,9.63
2019-05-09T22:06:00.447Z,9.73
2019-05-09T22:08:30.295Z,9.80
2019-05-09T22:11:00.097Z,10.20
2019-05-09T22:13:29.943Z,10.47
2019-05-09T22:15:59.771Z,9.80
2019-05-09T22:18:29.651Z,9.40
2019-05-09T22:20:59.485Z,10.37
2019-05-09T22:23:29.417Z,10.68
2019-05-09T22:25:59.307Z,9.97
2019-05-09T22:28:29.085Z,9.90
2019-05-09T22:30:58.947Z,9.40
2019-05-09T22:33:28.919Z,10.10
2019-05-09T22:35:58.811Z,9.27
2019-05-09T22:38:28.679Z,8.80
2019-05-09T22:40:58.501Z,9.73
2019-05-09T22:43:28.379Z,8.90
2019-05-09T22:45:58.163Z,9.57
2019-05-09T22:48:28.046Z,9.30
2019-05-09T22:50:57.895Z,8.80
2019-05-09T22:53:27.791Z,8.77
2019-05-09T22:55:57.603Z,9.20
2019-05-09T22:58:27.519Z,8.80
2019-05-09T23:00:57.302Z,10.23
2019-05-09T23:03:27.054Z,9.53
2019-05-09T23:05:56.912Z,9.93
2019-05-09T23:08:26.756Z,9.23
2019-05-09T23:10:56.580Z,9.83
2019-05-09T23:13:26.420Z,10.03
2019-05-09T23:15:56.236Z,10.40
2019-05-09T23:18:25.982Z,10.80
2019-05-09T23:20:57.830Z,10.73
2019-05-09T23:23:39.908Z,10.50
2019-05-09T23:26:10.453Z,9.83
2019-05-09T23:28:40.210Z,10.40
2019-05-09T23:31:13.914Z,10.40
2019-05-09T23:33:43.698Z,10.40
2019-05-09T23:36:13.560Z,10.67
2019-05-09T23:39:00.762Z,10.43
2019-05-09T23:41:30.643Z,10.90
2019-05-09T23:44:00.509Z,10.00
2019-05-09T23:46:30.313Z,10.00
2019-05-09T23:49:00.265Z,10.63
2019-05-09T23:51:45.313Z,10.27
2019-05-09T23:54:45.198Z,11.63
2019-05-09T23:57:22.815Z,11.27
